sensor_id;sensor_type;location;lat;lon;timestamp;temperature;humidity
10536;DHT22;5316;49.538;8.352;2023-04-03T07:07:45;5.10;52.00
10536;DHT22;5316;49.538;8.352;2023-04-03T07:10:12;5.20;47.50
10536;DHT22;5316;49.538;8.352;2023-04-03T07:12:39;5.20;39.30
10536;DHT22;5316;49.538;8.352;2023-04-03T07:15:07;5.20;44.40
10536;DHT22;5316;49.538;8.352;2023-04-03T07:17:34;5.30;41.30
10536;DHT22;5316;49.538;8.352;2023-04-03T07:20:01;5.20;45.20
10536;DHT22;5316;49.538;8.352;2023-04-03T07:22:29;5.20;32.70
10536;DHT22;5316;49.538;8.352;2023-04-03T07:24:58;5.30;34.20
10536;DHT22;5316;49.538;8.352;2023-04-03T07:27:25;5.40;33.10
10536;DHT22;5316;49.538;8.352;2023-04-03T07:29:52;5.40;30.00
10536;DHT22;5316;49.538;8.352;2023-04-03T07:32:21;5.40;29.20
10536;DHT22;5316;49.538;8.352;2023-04-03T07:34:48;5.50;30.60
10536;DHT22;5316;49.538;8.352;2023-04-03T07:37:16;5.50;28.50
10536;DHT22;5316;49.538;8.352;2023-04-03T07:39:43;5.60;35.50
10536;DHT22;5316;49.538;8.352;2023-04-03T07:42:12;5.70;30.90
10536;DHT22;5316;49.538;8.352;2023-04-03T07:44:38;5.80;20.20
10536;DHT22;5316;49.538;8.352;2023-04-03T07:47:05;5.80;10.30
10536;DHT22;5316;49.538;8.352;2023-04-03T07:49:33;5.90;1.00
10536;DHT22;5316;49.538;8.352;2023-04-03T07:52:03;6.00;1.00
10536;DHT22;5316;49.538;8.352;2023-04-03T07:54:30;6.00;1.00
10536;DHT22;5316;49.538;8.352;2023-04-03T07:56:58;6.00;1.00
10536;DHT22;5316;49.538;8.352;2023-04-03T07:59:27;6.00;1.00
10536;DHT22;5316;49.538;8.352;2023-04-03T08:01:54;6.10;1.00
10536;DHT22;5316;49.538;8.352;2023-04-03T08:04:21;6.10;1.00
10536;DHT22;5316;49.538;8.352;2023-04-03T08:06:48;6.20;1.00
10536;DHT22;5316;49.538;8.352;2023-04-03T08:09:14;6.20;1.00
10536;DHT22;5316;49.538;8.352;2023-04-03T08:11:41;6.20;1.00
10536;DHT22;5316;49.538;8.352;2023-04-03T08:14:08;6.30;1.00
10536;DHT22;5316;49.538;8.352;2023-04-03T08:16:43;6.40;1.00
10536;DHT22;5316;49.538;8.352;2023-04-03T08:19:09;6.50;1.00
10536;DHT22;5316;49.538;8.352;2023-04-03T08:21:39;6.50;1.00
10536;DHT22;5316;49.538;8.352;2023-04-03T08:24:07;6.70;1.00
10536;DHT22;5316;49.538;8.352;2023-04-03T08:26:34;6.80;1.00
10536;DHT22;5316;49.538;8.352;2023-04-03T08:29:01;6.90;1.00
10536;DHT22;5316;49.538;8.352;2023-04-03T08:31:28;7.00;1.00
10536;DHT22;5316;49.538;8.352;2023-04-03T08:33:57;7.10;1.00
10536;DHT22;5316;49.538;8.352;2023-04-03T08:36:26;7.20;1.00
10536;DHT22;5316;49.538;8.352;2023-04-03T08:38:55;7.30;1.00
10536;DHT22;5316;49.538;8.352;2023-04-03T08:41:29;7.30;1.00
10536;DHT22;5316;49.538;8.352;2023-04-03T08:44:02;7.40;1.00
10536;DHT22;5316;49.538;8.352;2023-04-03T08:46:40;7.50;1.00
10536;DHT22;5316;49.538;8.352;2023-04-03T08:49:24;7.60;1.00
10536;DHT22;5316;49.538;8.352;2023-04-03T08:51:54;7.80;1.00
10536;DHT22;5316;49.538;8.352;2023-04-03T08:54:28;7.90;1.00
10536;DHT22;5316;49.538;8.352;2023-04-03T08:56:58;8.00;1.00
10536;DHT22;5316;49.538;8.352;2023-04-03T08:59:31;8.10;1.00
10536;DHT22;5316;49.538;8.352;2023-04-03T09:02:01;8.20;1.00
10536;DHT22;5316;49.538;8.352;2023-04-03T09:04:33;8.30;1.00
10536;DHT22;5316;49.538;8.352;2023-04-03T09:07:06;8.40;1.00
10536;DHT22;5316;49.538;8.352;2023-04-03T09:09:37;8.50;1.00
10536;DHT22;5316;49.538;8.352;2023-04-03T09:12:13;8.60;1.00
10536;DHT22;5316;49.538;8.352;2023-04-03T09:14:49;8.50;1.00
10536;DHT22;5316;49.538;8.352;2023-04-03T09:17:29;8.60;1.00
10536;DHT22;5316;49.538;8.352;2023-04-03T09:20:09;8.70;1.00
10536;DHT22;5316;49.538;8.352;2023-04-03T09:22:39;8.80;1.00
10536;DHT22;5316;49.538;8.352;2023-04-03T09:25:12;8.90;1.00
10536;DHT22;5316;49.538;8.352;2023-04-03T09:27:39;8.90;1.00
10536;DHT22;5316;49.538;8.352;2023-04-03T09:30:13;8.90;1.00
10536;DHT22;5316;49.538;8.352;2023-04-03T09:32:40;8.90;1.00
10536;DHT22;5316;49.538;8.352;2023-04-03T09:35:17;8.90;1.00
10536;DHT22;5316;49.538;8.352;2023-04-03T09:37:46;8.90;1.00
10536;DHT22;5316;49.538;8.352;2023-04-03T09:40:36;9.00;1.00
10536;DHT22;5316;49.538;8.352;2023-04-03T09:43:20;9.00;1.00
10536;DHT22;5316;49.538;8.352;2023-04-03T09:45:49;9.00;1.00
10536;DHT22;5316;49.538;8.352;2023-04-03T09:48:17;8.90;1.00
10536;DHT22;5316;49.538;8.352;2023-04-03T09:50:56;8.90;1.00
10536;DHT22;5316;49.538;8.352;2023-04-03T09:53:42;9.00;1.00
10536;DHT22;5316;49.538;8.352;2023-04-03T09:56:20;9.10;1.00
10536;DHT22;5316;49.538;8.352;2023-04-03T09:58:48;9.30;1.00
10536;DHT22;5316;49.538;8.352;2023-04-03T10:01:29;9.30;1.00
10536;DHT22;5316;49.538;8.352;2023-04-03T10:04:09;9.40;1.00
10536;DHT22;5316;49.538;8.352;2023-04-03T10:06:39;9.40;1.00
10536;DHT22;5316;49.538;8.352;2023-04-03T10:09:18;9.40;1.00
10536;DHT22;5316;49.538;8.352;2023-04-03T10:12:04;9.50;1.00
10536;DHT22;5316;49.538;8.352;2023-04-03T10:14:33;9.60;1.00
10536;DHT22;5316;49.538;8.352;2023-04-03T10:17:09;9.50;1.00
10536;DHT22;5316;49.538;8.352;2023-04-03T10:19:41;9.50;1.00
10536;DHT22;5316;49.538;8.352;2023-04-03T10:22:19;9.70;1.00
10536;DHT22;5316;49.538;8.352;2023-04-03T10:24:58;9.80;1.00
10536;DHT22;5316;49.538;8.352;2023-04-03T10:27:36;9.90;1.00
10536;DHT22;5316;49.538;8.352;2023-04-03T10:30:19;9.90;1.00
10536;DHT22;5316;49.538;8.352;2023-04-03T10:32:55;9.90;1.00
10536;DHT22;5316;49.538;8.352;2023-04-03T10:35:35;9.80;1.00
10536;DHT22;5316;49.538;8.352;2023-04-03T10:38:12;9.80;1.00
10536;DHT22;5316;49.538;8.352;2023-04-03T10:40:47;9.90;1.00
10536;DHT22;5316;49.538;8.352;2023-04-03T10:43:23;10.00;1.00
10536;DHT22;5316;49.538;8.352;2023-04-03T10:45:57;10.20;1.00
10536;DHT22;5316;49.538;8.352;2023-04-03T10:48:38;10.30;1.00
10536;DHT22;5316;49.538;8.352;2023-04-03T10:51:16;10.40;1.00
10536;DHT22;5316;49.538;8.352;2023-04-03T10:53:53;10.30;1.00
10536;DHT22;5316;49.538;8.352;2023-04-03T10:56:30;10.20;1.00
10536;DHT22;5316;49.538;8.352;2023-04-03T10:59:02;10.20;1.00
10536;DHT22;5316;49.538;8.352;2023-04-03T11:01:38;10.20;1.00
10536;DHT22;5316;49.538;8.352;2023-04-03T11:04:09;10.10;1.00
10536;DHT22;5316;49.538;8.352;2023-04-03T11:06:41;10.10;1.00
10536;DHT22;5316;49.538;8.352;2023-04-03T11:09:19;10.10;1.00
10536;DHT22;5316;49.538;8.352;2023-04-03T11:11:55;10.30;1.00
10536;DHT22;5316;49.538;8.352;2023-04-03T11:14:26;10.40;1.00
10536;DHT22;5316;49.538;8.352;2023-04-03T11:17:01;10.40;1.00
10536;DHT22;5316;49.538;8.352;2023-04-03T11:19:34;10.50;1.00
10536;DHT22;5316;49.538;8.352;2023-04-03T11:22:09;10.60;1.00
10536;DHT22;5316;49.538;8.352;2023-04-03T11:24:42;10.70;1.00
10536;DHT22;5316;49.538;8.352;2023-04-03T11:27:16;10.80;1.00
10536;DHT22;5316;49.538;8.352;2023-04-03T11:29:48;10.70;1.00
10536;DHT22;5316;49.538;8.352;2023-04-03T11:32:31;10.70;1.00
10536;DHT22;5316;49.538;8.352;2023-04-03T11:35:01;10.70;1.00
10536;DHT22;5316;49.538;8.352;2023-04-03T11:37:33;10.50;1.00
10536;DHT22;5316;49.538;8.352;2023-04-03T11:40:06;10.40;1.00
10536;DHT22;5316;49.538;8.352;2023-04-03T11:42:37;10.40;1.00
10536;DHT22;5316;49.538;8.352;2023-04-03T11:45:31;10.50;1.00
10536;DHT22;5316;49.538;8.352;2023-04-03T11:48:00;10.50;1.00
10536;DHT22;5316;49.538;8.352;2023-04-03T11:50:39;10.50;1.00
10536;DHT22;5316;49.538;8.352;2023-04-03T11:53:34;10.40;1.00
10536;DHT22;5316;49.538;8.352;2023-04-03T11:56:28;10.50;1.00
10536;DHT22;5316;49.538;8.352;2023-04-03T11:59:22;10.50;1.00
10536;DHT22;5316;49.538;8.352;2023-04-03T12:01:50;10.50;1.00
10536;DHT22;5316;49.538;8.352;2023-04-03T12:04:18;10.50;1.00
10536;DHT22;5316;49.538;8.352;2023-04-03T12:09:57;10.70;1.00
10536;DHT22;5316;49.538;8.352;2023-04-03T12:12:30;10.70;1.00
10536;DHT22;5316;49.538;8.352;2023-04-03T12:15:20;10.80;1.00
10536;DHT22;5316;49.538;8.352;2023-04-03T12:17:47;10.90;1.00
10536;DHT22;5316;49.538;8.352;2023-04-03T12:20:52;11.10;1.00
10536;DHT22;5316;49.538;8.352;2023-04-03T12:23:30;11.20;1.00
10536;DHT22;5316;49.538;8.352;2023-04-03T12:26:18;11.30;1.00
10536;DHT22;5316;49.538;8.352;2023-04-03T12:28:50;11.30;1.00
10536;DHT22;5316;49.538;8.352;2023-04-03T12:31:19;11.40;1.00
10536;DHT22;5316;49.538;8.352;2023-04-03T12:33:59;11.40;1.00
10536;DHT22;5316;49.538;8.352;2023-04-03T12:36:37;11.50;1.00
10536;DHT22;5316;49.538;8.352;2023-04-03T12:39:21;11.50;1.00
10536;DHT22;5316;49.538;8.352;2023-04-03T12:41:58;11.50;1.00
10536;DHT22;5316;49.538;8.352;2023-04-03T12:44:45;11.50;1.00
10536;DHT22;5316;49.538;8.352;2023-04-03T12:47:25;11.40;1.00
10536;DHT22;5316;49.538;8.352;2023-04-03T12:49:53;11.50;1.00
10536;DHT22;5316;49.538;8.352;2023-04-03T12:52:31;11.40;1.00
10536;DHT22;5316;49.538;8.352;2023-04-03T12:55:00;11.30;1.00
10536;DHT22;5316;49.538;8.352;2023-04-03T12:57:29;11.20;1.00
10536;DHT22;5316;49.538;8.352;2023-04-03T12:59:59;11.20;1.00
10536;DHT22;5316;49.538;8.352;2023-04-03T13:02:28;11.20;1.00
10536;DHT22;5316;49.538;8.352;2023-04-03T13:04:57;11.30;1.00
10536;DHT22;5316;49.538;8.352;2023-04-03T13:07:27;11.30;1.00
10536;DHT22;5316;49.538;8.352;2023-04-03T13:10:13;11.50;1.00
10536;DHT22;5316;49.538;8.352;2023-04-03T13:12:46;11.70;1.00
10536;DHT22;5316;49.538;8.352;2023-04-03T13:15:18;11.90;1.00
10536;DHT22;5316;49.538;8.352;2023-04-03T13:17:46;12.30;1.00
10536;DHT22;5316;49.538;8.352;2023-04-03T13:20:19;12.60;1.00
10536;DHT22;5316;49.538;8.352;2023-04-03T13:22:53;12.70;1.00
10536;DHT22;5316;49.538;8.352;2023-04-03T13:25:24;12.60;1.00
10536;DHT22;5316;49.538;8.352;2023-04-03T13:27:52;12.40;1.00
10536;DHT22;5316;49.538;8.352;2023-04-03T13:30:28;12.30;1.00
10536;DHT22;5316;49.538;8.352;2023-04-03T13:32:59;12.30;1.00
10536;DHT22;5316;49.538;8.352;2023-04-03T13:35:32;12.40;1.00
10536;DHT22;5316;49.538;8.352;2023-04-03T13:38:04;12.70;1.00
10536;DHT22;5316;49.538;8.352;2023-04-03T13:40:31;13.10;1.00
10536;DHT22;5316;49.538;8.352;2023-04-03T13:43:02;13.40;1.00
10536;DHT22;5316;49.538;8.352;2023-04-03T13:45:31;13.60;1.00
10536;DHT22;5316;49.538;8.352;2023-04-03T13:48:17;13.90;1.00
10536;DHT22;5316;49.538;8.352;2023-04-03T13:50:54;14.30;1.00
10536;DHT22;5316;49.538;8.352;2023-04-03T13:53:22;14.60;1.00
10536;DHT22;5316;49.538;8.352;2023-04-03T13:55:57;14.70;1.00
10536;DHT22;5316;49.538;8.352;2023-04-03T13:58:25;15.00;1.00
10536;DHT22;5316;49.538;8.352;2023-04-03T14:00:55;15.00;1.00
10536;DHT22;5316;49.538;8.352;2023-04-03T14:03:25;14.70;1.00
10536;DHT22;5316;49.538;8.352;2023-04-03T14:05:53;14.50;1.00
10536;DHT22;5316;49.538;8.352;2023-04-03T14:08:20;14.20;1.00
10536;DHT22;5316;49.538;8.352;2023-04-03T14:10:47;14.10;1.00
10536;DHT22;5316;49.538;8.352;2023-04-03T14:13:16;13.90;1.00
10536;DHT22;5316;49.538;8.352;2023-04-03T14:15:44;14.00;1.00
10536;DHT22;5316;49.538;8.352;2023-04-03T14:18:17;14.20;1.00
10536;DHT22;5316;49.538;8.352;2023-04-03T14:20:45;14.40;1.00
10536;DHT22;5316;49.538;8.352;2023-04-03T14:23:13;14.90;1.00
10536;DHT22;5316;49.538;8.352;2023-04-03T14:25:40;15.30;1.00
10536;DHT22;5316;49.538;8.352;2023-04-03T14:28:15;15.70;1.00
10536;DHT22;5316;49.538;8.352;2023-04-03T14:30:42;16.10;1.00
10536;DHT22;5316;49.538;8.352;2023-04-03T14:33:16;16.60;1.00
10536;DHT22;5316;49.538;8.352;2023-04-03T14:35:44;17.00;1.00
10536;DHT22;5316;49.538;8.352;2023-04-03T14:38:23;17.00;1.00
10536;DHT22;5316;49.538;8.352;2023-04-03T14:40:51;16.60;1.00
10536;DHT22;5316;49.538;8.352;2023-04-03T14:43:18;15.80;1.00
10536;DHT22;5316;49.538;8.352;2023-04-03T14:45:46;15.10;1.00
10536;DHT22;5316;49.538;8.352;2023-04-03T14:48:19;14.70;1.00
10536;DHT22;5316;49.538;8.352;2023-04-03T14:50:47;14.40;1.00
10536;DHT22;5316;49.538;8.352;2023-04-03T14:53:14;14.60;1.00
10536;DHT22;5316;49.538;8.352;2023-04-03T14:55:45;15.00;1.00
10536;DHT22;5316;49.538;8.352;2023-04-03T14:58:14;15.80;1.00
10536;DHT22;5316;49.538;8.352;2023-04-03T15:00:44;16.60;1.00
10536;DHT22;5316;49.538;8.352;2023-04-03T15:03:14;17.30;1.00
10536;DHT22;5316;49.538;8.352;2023-04-03T15:05:43;17.90;1.00
10536;DHT22;5316;49.538;8.352;2023-04-03T15:08:19;18.40;1.00
10536;DHT22;5316;49.538;8.352;2023-04-03T15:10:47;18.60;1.00
10536;DHT22;5316;49.538;8.352;2023-04-03T15:13:15;18.50;1.00
10536;DHT22;5316;49.538;8.352;2023-04-03T15:15:42;18.50;1.00
10536;DHT22;5316;49.538;8.352;2023-04-03T15:18:14;18.50;1.00
10536;DHT22;5316;49.538;8.352;2023-04-03T15:20:43;18.60;1.00
10536;DHT22;5316;49.538;8.352;2023-04-03T15:23:12;18.70;1.00
10536;DHT22;5316;49.538;8.352;2023-04-03T15:25:41;18.90;1.00
10536;DHT22;5316;49.538;8.352;2023-04-03T15:28:09;18.90;1.00
10536;DHT22;5316;49.538;8.352;2023-04-03T15:30:39;19.00;1.00
10536;DHT22;5316;49.538;8.352;2023-04-03T15:33:06;19.20;1.00
10536;DHT22;5316;49.538;8.352;2023-04-03T15:35:33;19.40;1.00
10536;DHT22;5316;49.538;8.352;2023-04-03T15:38:02;19.30;1.00
10536;DHT22;5316;49.538;8.352;2023-04-03T15:40:28;19.30;1.00
10536;DHT22;5316;49.538;8.352;2023-04-03T15:42:55;19.40;1.00
10536;DHT22;5316;49.538;8.352;2023-04-03T15:45:22;19.60;1.00
10536;DHT22;5316;49.538;8.352;2023-04-03T15:47:49;19.60;1.00
10536;DHT22;5316;49.538;8.352;2023-04-03T15:50:19;19.50;1.00
10536;DHT22;5316;49.538;8.352;2023-04-03T15:52:48;19.20;1.00
10536;DHT22;5316;49.538;8.352;2023-04-03T15:55:21;19.00;1.00
10536;DHT22;5316;49.538;8.352;2023-04-03T15:57:48;18.70;1.00
10536;DHT22;5316;49.538;8.352;2023-04-03T16:00:15;18.70;1.00
10536;DHT22;5316;49.538;8.352;2023-04-03T16:02:49;18.60;1.00
10536;DHT22;5316;49.538;8.352;2023-04-03T16:05:17;18.70;1.00
10536;DHT22;5316;49.538;8.352;2023-04-03T16:07:45;18.90;1.00
10536;DHT22;5316;49.538;8.352;2023-04-03T16:10:14;19.00;1.00
10536;DHT22;5316;49.538;8.352;2023-04-03T16:12:43;19.10;1.00
10536;DHT22;5316;49.538;8.352;2023-04-03T16:15:10;19.30;1.00
10536;DHT22;5316;49.538;8.352;2023-04-03T16:17:38;19.30;1.00
10536;DHT22;5316;49.538;8.352;2023-04-03T16:20:07;18.80;1.00
10536;DHT22;5316;49.538;8.352;2023-04-03T16:22:35;18.90;1.00
10536;DHT22;5316;49.538;8.352;2023-04-03T16:25:04;19.20;1.00
10536;DHT22;5316;49.538;8.352;2023-04-03T16:27:31;19.20;1.00
10536;DHT22;5316;49.538;8.352;2023-04-03T16:29:59;19.10;1.00
10536;DHT22;5316;49.538;8.352;2023-04-03T16:32:29;18.90;1.00
10536;DHT22;5316;49.538;8.352;2023-04-03T16:34:57;18.80;1.00
10536;DHT22;5316;49.538;8.352;2023-04-03T16:37:24;18.90;1.00
10536;DHT22;5316;49.538;8.352;2023-04-03T16:39:51;18.90;1.00
10536;DHT22;5316;49.538;8.352;2023-04-03T16:42:18;18.70;1.00
10536;DHT22;5316;49.538;8.352;2023-04-03T16:44:45;18.50;1.00
10536;DHT22;5316;49.538;8.352;2023-04-03T16:47:13;18.50;1.00
10536;DHT22;5316;49.538;8.352;2023-04-03T16:49:44;18.70;1.00
10536;DHT22;5316;49.538;8.352;2023-04-03T16:52:11;18.60;1.00
10536;DHT22;5316;49.538;8.352;2023-04-03T16:54:38;18.60;1.00
10536;DHT22;5316;49.538;8.352;2023-04-03T16:57:05;18.60;1.00
10536;DHT22;5316;49.538;8.352;2023-04-03T16:59:32;18.40;1.00
10536;DHT22;5316;49.538;8.352;2023-04-03T17:01:59;18.20;1.00
10536;DHT22;5316;49.538;8.352;2023-04-03T17:04:27;17.80;1.00
10536;DHT22;5316;49.538;8.352;2023-04-03T17:06:54;17.60;1.00
10536;DHT22;5316;49.538;8.352;2023-04-03T17:09:21;17.20;1.00
10536;DHT22;5316;49.538;8.352;2023-04-03T17:11:48;16.80;1.00
10536;DHT22;5316;49.538;8.352;2023-04-03T17:14:15;16.40;1.00
10536;DHT22;5316;49.538;8.352;2023-04-03T17:16:42;15.90;1.00
10536;DHT22;5316;49.538;8.352;2023-04-03T17:19:09;15.40;1.00
10536;DHT22;5316;49.538;8.352;2023-04-03T17:21:38;14.80;1.00
10536;DHT22;5316;49.538;8.352;2023-04-03T17:24:08;14.20;1.00
10536;DHT22;5316;49.538;8.352;2023-04-03T17:26:38;13.70;1.00
10536;DHT22;5316;49.538;8.352;2023-04-03T17:29:06;13.20;1.00
10536;DHT22;5316;49.538;8.352;2023-04-03T17:31:33;12.80;1.00
10536;DHT22;5316;49.538;8.352;2023-04-03T17:34:00;12.30;1.00
10536;DHT22;5316;49.538;8.352;2023-04-03T17:36:27;12.00;1.00
10536;DHT22;5316;49.538;8.352;2023-04-03T17:38:56;11.70;1.00
10536;DHT22;5316;49.538;8.352;2023-04-03T17:41:23;11.50;1.00
10536;DHT22;5316;49.538;8.352;2023-04-03T17:43:50;11.10;1.00
10536;DHT22;5316;49.538;8.352;2023-04-03T17:46:20;10.90;1.00
10536;DHT22;5316;49.538;8.352;2023-04-03T17:48:47;10.70;1.00
10536;DHT22;5316;49.538;8.352;2023-04-03T17:51:17;10.60;1.00
10536;DHT22;5316;49.538;8.352;2023-04-03T17:53:44;10.40;1.00
10536;DHT22;5316;49.538;8.352;2023-04-03T17:56:15;10.20;1.00
10536;DHT22;5316;49.538;8.352;2023-04-03T17:58:43;10.20;1.00
10536;DHT22;5316;49.538;8.352;2023-04-03T18:01:12;10.10;1.00
10536;DHT22;5316;49.538;8.352;2023-04-03T18:03:39;10.00;1.00
10536;DHT22;5316;49.538;8.352;2023-04-03T18:06:08;9.80;1.00
10536;DHT22;5316;49.538;8.352;2023-04-03T18:08:38;9.70;1.00
10536;DHT22;5316;49.538;8.352;2023-04-03T18:11:07;9.60;1.00
10536;DHT22;5316;49.538;8.352;2023-04-03T18:13:36;9.50;1.00
10536;DHT22;5316;49.538;8.352;2023-04-03T18:16:03;9.40;1.00
10536;DHT22;5316;49.538;8.352;2023-04-03T18:18:31;9.30;1.00
10536;DHT22;5316;49.538;8.352;2023-04-03T18:20:59;9.20;1.00
10536;DHT22;5316;49.538;8.352;2023-04-03T18:23:27;9.10;1.00
10536;DHT22;5316;49.538;8.352;2023-04-03T18:25:58;9.00;1.00
10536;DHT22;5316;49.538;8.352;2023-04-03T18:28:28;9.00;1.00
10536;DHT22;5316;49.538;8.352;2023-04-03T18:30:59;8.80;1.00
10536;DHT22;5316;49.538;8.352;2023-04-03T18:33:26;8.70;1.00
10536;DHT22;5316;49.538;8.352;2023-04-03T18:35:53;8.70;1.00
10536;DHT22;5316;49.538;8.352;2023-04-03T18:38:20;8.60;1.00
10536;DHT22;5316;49.538;8.352;2023-04-03T18:40:48;8.40;1.00
10536;DHT22;5316;49.538;8.352;2023-04-03T18:43:15;8.40;1.00
10536;DHT22;5316;49.538;8.352;2023-04-03T18:45:42;8.40;1.00
10536;DHT22;5316;49.538;8.352;2023-04-03T18:48:10;8.30;1.00
10536;DHT22;5316;49.538;8.352;2023-04-03T18:50:38;8.30;1.00
10536;DHT22;5316;49.538;8.352;2023-04-03T18:53:04;8.20;1.00
10536;DHT22;5316;49.538;8.352;2023-04-03T18:55:31;8.10;1.00
10536;DHT22;5316;49.538;8.352;2023-04-03T18:58:00;8.10;1.00
10536;DHT22;5316;49.538;8.352;2023-04-03T19:00:27;8.00;1.00
10536;DHT22;5316;49.538;8.352;2023-04-03T19:02:55;7.90;1.00
10536;DHT22;5316;49.538;8.352;2023-04-03T19:05:23;7.90;1.00
10536;DHT22;5316;49.538;8.352;2023-04-03T19:07:53;7.80;1.00
10536;DHT22;5316;49.538;8.352;2023-04-03T19:10:21;7.70;1.00
10536;DHT22;5316;49.538;8.352;2023-04-03T19:12:50;7.70;1.00
10536;DHT22;5316;49.538;8.352;2023-04-03T19:15:19;7.70;1.00
10536;DHT22;5316;49.538;8.352;2023-04-03T19:17:46;7.60;1.00
10536;DHT22;5316;49.538;8.352;2023-04-03T19:20:13;7.50;1.00
10536;DHT22;5316;49.538;8.352;2023-04-03T19:22:42;7.50;1.00
10536;DHT22;5316;49.538;8.352;2023-04-03T19:25:10;7.40;1.00
10536;DHT22;5316;49.538;8.352;2023-04-03T19:27:38;7.40;1.00
10536;DHT22;5316;49.538;8.352;2023-04-03T19:30:07;7.30;1.00
10536;DHT22;5316;49.538;8.352;2023-04-03T19:32:34;7.30;1.00
10536;DHT22;5316;49.538;8.352;2023-04-03T19:35:01;7.20;1.00
10536;DHT22;5316;49.538;8.352;2023-04-03T19:37:29;7.20;1.00
10536;DHT22;5316;49.538;8.352;2023-04-03T19:39:57;7.10;1.00
10536;DHT22;5316;49.538;8.352;2023-04-03T19:42:27;7.10;1.00
10536;DHT22;5316;49.538;8.352;2023-04-03T19:44:55;7.00;1.00
10536;DHT22;5316;49.538;8.352;2023-04-03T19:47:23;6.90;1.00
10536;DHT22;5316;49.538;8.352;2023-04-03T19:49:50;6.90;1.00
10536;DHT22;5316;49.538;8.352;2023-04-03T19:52:17;6.80;1.00
10536;DHT22;5316;49.538;8.352;2023-04-03T19:54:44;6.80;1.00
10536;DHT22;5316;49.538;8.352;2023-04-03T19:57:13;6.80;1.00
10536;DHT22;5316;49.538;8.352;2023-04-03T19:59:40;6.80;1.00
10536;DHT22;5316;49.538;8.352;2023-04-03T20:02:07;6.70;1.00
10536;DHT22;5316;49.538;8.352;2023-04-03T20:04:34;6.60;1.00
10536;DHT22;5316;49.538;8.352;2023-04-03T20:07:01;6.60;1.00
10536;DHT22;5316;49.538;8.352;2023-04-03T20:09:28;6.50;1.00
10536;DHT22;5316;49.538;8.352;2023-04-03T20:11:55;6.40;1.00
10536;DHT22;5316;49.538;8.352;2023-04-03T20:14:26;6.40;1.00
10536;DHT22;5316;49.538;8.352;2023-04-03T20:16:53;6.40;1.00
10536;DHT22;5316;49.538;8.352;2023-04-03T20:19:20;6.30;1.00
10536;DHT22;5316;49.538;8.352;2023-04-03T20:21:59;6.20;1.00
10536;DHT22;5316;49.538;8.352;2023-04-03T20:24:27;6.20;1.00
10536;DHT22;5316;49.538;8.352;2023-04-03T20:26:55;6.20;1.00
10536;DHT22;5316;49.538;8.352;2023-04-03T20:29:22;6.10;1.00
10536;DHT22;5316;49.538;8.352;2023-04-03T20:31:51;6.00;1.00
10536;DHT22;5316;49.538;8.352;2023-04-03T20:34:19;6.00;1.00
10536;DHT22;5316;49.538;8.352;2023-04-03T20:36:47;5.90;1.00
10536;DHT22;5316;49.538;8.352;2023-04-03T20:39:14;5.90;1.00
10536;DHT22;5316;49.538;8.352;2023-04-03T20:41:41;5.80;1.00
10536;DHT22;5316;49.538;8.352;2023-04-03T20:44:08;5.80;1.00
10536;DHT22;5316;49.538;8.352;2023-04-03T20:46:35;5.80;1.00
10536;DHT22;5316;49.538;8.352;2023-04-03T20:49:04;5.70;1.00
10536;DHT22;5316;49.538;8.352;2023-04-03T20:51:31;5.70;1.00
10536;DHT22;5316;49.538;8.352;2023-04-03T20:53:59;5.70;1.00
10536;DHT22;5316;49.538;8.352;2023-04-03T20:56:29;5.60;1.00
10536;DHT22;5316;49.538;8.352;2023-04-03T20:58:57;5.60;1.00
10536;DHT22;5316;49.538;8.352;2023-04-03T21:01:26;5.50;1.00
10536;DHT22;5316;49.538;8.352;2023-04-03T21:03:55;5.50;1.00
10536;DHT22;5316;49.538;8.352;2023-04-03T21:21:01;5.20;1.00
10536;DHT22;5316;49.538;8.352;2023-04-03T21:23:29;5.20;1.00
10536;DHT22;5316;49.538;8.352;2023-04-03T21:25:56;5.10;1.00
10536;DHT22;5316;49.538;8.352;2023-04-03T21:28:24;5.10;1.00
10536;DHT22;5316;49.538;8.352;2023-04-03T21:30:51;5.10;1.00
10536;DHT22;5316;49.538;8.352;2023-04-03T21:33:18;5.10;1.00
10536;DHT22;5316;49.538;8.352;2023-04-03T21:35:46;5.00;1.00
10536;DHT22;5316;49.538;8.352;2023-04-03T21:38:13;5.00;1.00
10536;DHT22;5316;49.538;8.352;2023-04-03T21:40:41;5.00;1.00
10536;DHT22;5316;49.538;8.352;2023-04-03T21:43:11;5.00;1.00
10536;DHT22;5316;49.538;8.352;2023-04-03T21:45:38;4.90;1.00
10536;DHT22;5316;49.538;8.352;2023-04-03T21:48:05;4.90;1.00
10536;DHT22;5316;49.538;8.352;2023-04-03T21:50:34;4.90;1.00
10536;DHT22;5316;49.538;8.352;2023-04-03T21:53:03;4.90;1.00
10536;DHT22;5316;49.538;8.352;2023-04-03T21:55:30;4.90;1.00
10536;DHT22;5316;49.538;8.352;2023-04-03T21:57:58;4.90;1.00
10536;DHT22;5316;49.538;8.352;2023-04-03T22:00:25;4.80;1.00
10536;DHT22;5316;49.538;8.352;2023-04-03T22:02:52;4.70;1.00
10536;DHT22;5316;49.538;8.352;2023-04-03T22:05:19;4.70;1.00
10536;DHT22;5316;49.538;8.352;2023-04-03T22:07:46;4.70;1.00
10536;DHT22;5316;49.538;8.352;2023-04-03T22:10:16;4.70;1.00
10536;DHT22;5316;49.538;8.352;2023-04-03T22:12:43;4.70;1.00
10536;DHT22;5316;49.538;8.352;2023-04-03T22:15:10;4.70;1.00
10536;DHT22;5316;49.538;8.352;2023-04-03T22:17:37;4.60;1.00
10536;DHT22;5316;49.538;8.352;2023-04-03T22:20:11;4.60;1.00
10536;DHT22;5316;49.538;8.352;2023-04-03T22:22:38;4.60;1.00
10536;DHT22;5316;49.538;8.352;2023-04-03T22:25:06;4.50;1.00
10536;DHT22;5316;49.538;8.352;2023-04-03T22:27:35;4.50;1.00
10536;DHT22;5316;49.538;8.352;2023-04-03T22:30:05;4.40;1.00
10536;DHT22;5316;49.538;8.352;2023-04-03T22:32:32;4.40;1.00
10536;DHT22;5316;49.538;8.352;2023-04-03T22:34:59;4.40;1.00
10536;DHT22;5316;49.538;8.352;2023-04-03T22:37:26;4.40;1.00
10536;DHT22;5316;49.538;8.352;2023-04-03T22:39:53;4.30;1.00
10536;DHT22;5316;49.538;8.352;2023-04-03T22:42:20;4.30;1.00
10536;DHT22;5316;49.538;8.352;2023-04-03T22:44:48;4.30;1.00
10536;DHT22;5316;49.538;8.352;2023-04-03T22:47:15;4.20;1.00
10536;DHT22;5316;49.538;8.352;2023-04-03T22:49:42;4.20;1.00
10536;DHT22;5316;49.538;8.352;2023-04-03T22:52:09;4.20;1.00
10536;DHT22;5316;49.538;8.352;2023-04-03T22:54:35;4.10;1.00
10536;DHT22;5316;49.538;8.352;2023-04-03T22:57:02;4.00;1.00
10536;DHT22;5316;49.538;8.352;2023-04-03T22:59:29;4.10;1.00
10536;DHT22;5316;49.538;8.352;2023-04-03T23:01:57;3.90;1.00
10536;DHT22;5316;49.538;8.352;2023-04-03T23:04:24;3.90;1.00
10536;DHT22;5316;49.538;8.352;2023-04-03T23:06:51;3.80;1.00
10536;DHT22;5316;49.538;8.352;2023-04-03T23:09:18;3.80;1.00
10536;DHT22;5316;49.538;8.352;2023-04-03T23:11:45;3.80;1.00
10536;DHT22;5316;49.538;8.352;2023-04-03T23:14:12;3.70;1.00
10536;DHT22;5316;49.538;8.352;2023-04-03T23:16:40;3.70;1.00
10536;DHT22;5316;49.538;8.352;2023-04-03T23:19:08;3.70;1.00
10536;DHT22;5316;49.538;8.352;2023-04-03T23:21:35;3.60;1.00
10536;DHT22;5316;49.538;8.352;2023-04-03T23:24:02;3.60;1.00
10536;DHT22;5316;49.538;8.352;2023-04-03T23:26:29;3.60;1.00
10536;DHT22;5316;49.538;8.352;2023-04-03T23:28:56;3.60;1.00
10536;DHT22;5316;49.538;8.352;2023-04-03T23:31:23;3.60;1.00
10536;DHT22;5316;49.538;8.352;2023-04-03T23:33:50;3.50;1.00
10536;DHT22;5316;49.538;8.352;2023-04-03T23:36:18;3.50;1.00
10536;DHT22;5316;49.538;8.352;2023-04-03T23:38:45;3.60;1.00
10536;DHT22;5316;49.538;8.352;2023-04-03T23:41:12;3.50;1.00
10536;DHT22;5316;49.538;8.352;2023-04-03T23:43:39;3.50;1.00
10536;DHT22;5316;49.538;8.352;2023-04-03T23:46:06;3.50;1.00
10536;DHT22;5316;49.538;8.352;2023-04-03T23:48:33;3.50;1.00
10536;DHT22;5316;49.538;8.352;2023-04-03T23:51:01;3.50;1.00
10536;DHT22;5316;49.538;8.352;2023-04-03T23:53:29;3.40;1.00